sensor_id;sensor_type;location;lat;lon;timestamp;P1;durP1;ratioP1;P2;durP2;ratioP2
29206;SDS011;16247;50.840;4.382;2023-06-22T00:02:39;5.30;;;3.10;;
29206;SDS011;16247;50.840;4.382;2023-06-22T00:19:17;5.32;;;3.60;;
29206;SDS011;16247;50.840;4.382;2023-06-22T00:27:32;5.80;;;3.63;;
29206;SDS011;16247;50.840;4.382;2023-06-22T01:12:36;5.97;;;4.35;;
29206;SDS011;16247;50.840;4.382;2023-06-22T01:15:21;9.98;;;5.72;;
29206;SDS011;16247;50.840;4.382;2023-06-22T01:29:04;7.93;;;4.75;;
29206;SDS011;16247;50.840;4.382;2023-06-22T01:31:35;7.55;;;5.30;;
29206;SDS011;16247;50.840;4.382;2023-06-22T01:40:52;9.57;;;5.00;;
29206;SDS011;16247;50.840;4.382;2023-06-22T01:43:35;7.78;;;4.85;;
29206;SDS011;16247;50.840;4.382;2023-06-22T02:02:23;7.00;;;5.18;;
29206;SDS011;16247;50.840;4.382;2023-06-22T02:05:08;7.63;;;5.10;;
29206;SDS011;16247;50.840;4.382;2023-06-22T02:07:44;6.88;;;5.32;;
29206;SDS011;16247;50.840;4.382;2023-06-22T02:10:24;8.80;;;6.40;;
29206;SDS011;16247;50.840;4.382;2023-06-22T02:13:04;7.85;;;4.75;;
29206;SDS011;16247;50.840;4.382;2023-06-22T02:15:36;8.02;;;5.22;;
29206;SDS011;16247;50.840;4.382;2023-06-22T02:20:29;9.02;;;6.07;;
29206;SDS011;16247;50.840;4.382;2023-06-22T02:22:59;6.77;;;5.17;;
29206;SDS011;16247;50.840;4.382;2023-06-22T02:30:36;8.15;;;5.68;;
29206;SDS011;16247;50.840;4.382;2023-06-22T02:33:31;9.13;;;5.67;;
29206;SDS011;16247;50.840;4.382;2023-06-22T05:01:48;14.52;;;10.48;;
29206;SDS011;16247;50.840;4.382;2023-06-22T05:04:13;14.98;;;10.35;;
29206;SDS011;16247;50.840;4.382;2023-06-22T05:06:39;14.07;;;10.60;;
29206;SDS011;16247;50.840;4.382;2023-06-22T05:09:05;13.73;;;10.00;;
29206;SDS011;16247;50.840;4.382;2023-06-22T05:11:30;14.73;;;9.88;;
29206;SDS011;16247;50.840;4.382;2023-06-22T05:13:56;14.32;;;11.15;;
29206;SDS011;16247;50.840;4.382;2023-06-22T05:16:22;19.05;;;11.90;;
29206;SDS011;16247;50.840;4.382;2023-06-22T05:18:51;19.40;;;11.13;;
29206;SDS011;16247;50.840;4.382;2023-06-22T05:21:21;17.00;;;12.23;;
29206;SDS011;16247;50.840;4.382;2023-06-22T05:23:48;20.23;;;11.18;;
29206;SDS011;16247;50.840;4.382;2023-06-22T05:26:14;15.75;;;11.85;;
29206;SDS011;16247;50.840;4.382;2023-06-22T05:28:39;23.63;;;12.90;;
29206;SDS011;16247;50.840;4.382;2023-06-22T05:31:05;17.35;;;12.38;;
29206;SDS011;16247;50.840;4.382;2023-06-22T05:33:31;20.70;;;12.82;;
29206;SDS011;16247;50.840;4.382;2023-06-22T05:35:56;19.98;;;14.57;;
29206;SDS011;16247;50.840;4.382;2023-06-22T05:38:22;21.85;;;14.15;;
29206;SDS011;16247;50.840;4.382;2023-06-22T05:40:47;19.88;;;14.15;;
29206;SDS011;16247;50.840;4.382;2023-06-22T05:43:13;23.45;;;14.45;;
29206;SDS011;16247;50.840;4.382;2023-06-22T05:45:39;21.42;;;16.52;;
29206;SDS011;16247;50.840;4.382;2023-06-22T05:48:04;19.35;;;13.88;;
29206;SDS011;16247;50.840;4.382;2023-06-22T05:50:30;18.05;;;13.45;;
29206;SDS011;16247;50.840;4.382;2023-06-22T05:52:56;19.63;;;13.30;;
29206;SDS011;16247;50.840;4.382;2023-06-22T05:55:22;20.80;;;13.07;;
29206;SDS011;16247;50.840;4.382;2023-06-22T05:57:48;20.10;;;15.52;;
29206;SDS011;16247;50.840;4.382;2023-06-22T06:00:14;18.08;;;14.80;;
29206;SDS011;16247;50.840;4.382;2023-06-22T06:02:40;22.48;;;13.27;;
29206;SDS011;16247;50.840;4.382;2023-06-22T06:05:11;19.95;;;16.33;;
29206;SDS011;16247;50.840;4.382;2023-06-22T06:07:40;19.80;;;14.18;;
29206;SDS011;16247;50.840;4.382;2023-06-22T06:10:09;22.13;;;16.13;;
29206;SDS011;16247;50.840;4.382;2023-06-22T06:12:35;16.67;;;14.68;;
29206;SDS011;16247;50.840;4.382;2023-06-22T06:15:01;17.60;;;14.38;;
29206;SDS011;16247;50.840;4.382;2023-06-22T06:17:27;21.23;;;15.18;;
29206;SDS011;16247;50.840;4.382;2023-06-22T06:19:53;22.55;;;15.70;;
29206;SDS011;16247;50.840;4.382;2023-06-22T06:22:18;19.58;;;13.25;;
29206;SDS011;16247;50.840;4.382;2023-06-22T06:24:46;20.90;;;13.27;;
29206;SDS011;16247;50.840;4.382;2023-06-22T06:27:13;15.20;;;12.63;;
29206;SDS011;16247;50.840;4.382;2023-06-22T06:29:39;18.20;;;12.60;;
29206;SDS011;16247;50.840;4.382;2023-06-22T06:32:05;21.25;;;12.98;;
29206;SDS011;16247;50.840;4.382;2023-06-22T06:34:31;20.83;;;13.82;;
29206;SDS011;16247;50.840;4.382;2023-06-22T06:36:56;20.23;;;14.15;;
29206;SDS011;16247;50.840;4.382;2023-06-22T06:39:22;18.52;;;13.63;;
29206;SDS011;16247;50.840;4.382;2023-06-22T06:41:48;17.90;;;13.20;;
29206;SDS011;16247;50.840;4.382;2023-06-22T06:44:13;17.30;;;13.10;;
29206;SDS011;16247;50.840;4.382;2023-06-22T06:46:39;20.30;;;13.52;;
29206;SDS011;16247;50.840;4.382;2023-06-22T06:49:07;24.63;;;17.58;;
29206;SDS011;16247;50.840;4.382;2023-06-22T06:51:32;22.65;;;16.45;;
29206;SDS011;16247;50.840;4.382;2023-06-22T06:53:58;22.50;;;16.10;;
29206;SDS011;16247;50.840;4.382;2023-06-22T06:56:23;19.52;;;15.02;;
29206;SDS011;16247;50.840;4.382;2023-06-22T06:58:49;23.48;;;16.75;;
29206;SDS011;16247;50.840;4.382;2023-06-22T07:01:16;17.67;;;15.20;;
29206;SDS011;16247;50.840;4.382;2023-06-22T07:03:41;18.73;;;14.45;;
29206;SDS011;16247;50.840;4.382;2023-06-22T07:06:08;20.88;;;15.57;;
29206;SDS011;16247;50.840;4.382;2023-06-22T07:08:34;19.53;;;16.27;;
29206;SDS011;16247;50.840;4.382;2023-06-22T07:11:01;21.85;;;17.65;;
29206;SDS011;16247;50.840;4.382;2023-06-22T07:13:27;25.02;;;18.40;;
29206;SDS011;16247;50.840;4.382;2023-06-22T07:15:54;22.25;;;16.73;;
29206;SDS011;16247;50.840;4.382;2023-06-22T07:18:19;20.17;;;17.35;;
29206;SDS011;16247;50.840;4.382;2023-06-22T07:20:45;20.02;;;15.75;;
29206;SDS011;16247;50.840;4.382;2023-06-22T07:23:10;22.38;;;16.13;;
29206;SDS011;16247;50.840;4.382;2023-06-22T07:25:36;23.27;;;17.70;;
29206;SDS011;16247;50.840;4.382;2023-06-22T07:28:04;23.42;;;17.40;;
29206;SDS011;16247;50.840;4.382;2023-06-22T07:32:57;18.73;;;14.93;;
29206;SDS011;16247;50.840;4.382;2023-06-22T07:35:24;20.60;;;16.92;;
29206;SDS011;16247;50.840;4.382;2023-06-22T07:37:50;21.88;;;15.82;;
29206;SDS011;16247;50.840;4.382;2023-06-22T07:40:15;18.30;;;15.20;;
29206;SDS011;16247;50.840;4.382;2023-06-22T07:42:41;18.42;;;15.90;;
29206;SDS011;16247;50.840;4.382;2023-06-22T07:45:07;18.35;;;15.40;;
29206;SDS011;16247;50.840;4.382;2023-06-22T07:47:33;23.90;;;16.48;;
29206;SDS011;16247;50.840;4.382;2023-06-22T07:50:00;24.77;;;15.55;;
29206;SDS011;16247;50.840;4.382;2023-06-22T07:52:30;19.73;;;15.82;;
29206;SDS011;16247;50.840;4.382;2023-06-22T07:54:56;21.60;;;15.48;;
29206;SDS011;16247;50.840;4.382;2023-06-22T07:57:22;18.55;;;14.15;;
29206;SDS011;16247;50.840;4.382;2023-06-22T07:59:47;15.75;;;13.80;;
29206;SDS011;16247;50.840;4.382;2023-06-22T08:02:13;19.02;;;14.00;;
29206;SDS011;16247;50.840;4.382;2023-06-22T08:04:39;19.00;;;14.50;;
29206;SDS011;16247;50.840;4.382;2023-06-22T08:07:05;18.45;;;14.77;;
29206;SDS011;16247;50.840;4.382;2023-06-22T08:09:32;20.38;;;15.10;;
29206;SDS011;16247;50.840;4.382;2023-06-22T08:11:58;20.55;;;14.85;;
29206;SDS011;16247;50.840;4.382;2023-06-22T08:14:27;19.58;;;15.23;;
29206;SDS011;16247;50.840;4.382;2023-06-22T08:16:54;18.17;;;14.27;;
29206;SDS011;16247;50.840;4.382;2023-06-22T08:19:20;16.25;;;12.45;;
29206;SDS011;16247;50.840;4.382;2023-06-22T08:21:46;16.52;;;14.15;;
29206;SDS011;16247;50.840;4.382;2023-06-22T08:24:11;18.90;;;13.32;;
29206;SDS011;16247;50.840;4.382;2023-06-22T08:26:38;17.40;;;14.40;;
29206;SDS011;16247;50.840;4.382;2023-06-22T08:29:03;21.25;;;15.32;;
29206;SDS011;16247;50.840;4.382;2023-06-22T08:31:30;17.92;;;15.27;;
29206;SDS011;16247;50.840;4.382;2023-06-22T08:33:57;24.17;;;15.55;;
29206;SDS011;16247;50.840;4.382;2023-06-22T08:36:22;22.00;;;16.55;;
29206;SDS011;16247;50.840;4.382;2023-06-22T08:38:48;18.38;;;14.93;;
29206;SDS011;16247;50.840;4.382;2023-06-22T08:41:16;22.23;;;16.23;;
29206;SDS011;16247;50.840;4.382;2023-06-22T08:43:42;21.15;;;14.80;;
29206;SDS011;16247;50.840;4.382;2023-06-22T08:46:09;18.20;;;15.02;;
29206;SDS011;16247;50.840;4.382;2023-06-22T08:48:35;17.15;;;15.35;;
29206;SDS011;16247;50.840;4.382;2023-06-22T08:51:01;20.55;;;15.80;;
29206;SDS011;16247;50.840;4.382;2023-06-22T08:53:28;19.05;;;15.85;;
29206;SDS011;16247;50.840;4.382;2023-06-22T08:55:54;18.05;;;15.50;;
29206;SDS011;16247;50.840;4.382;2023-06-22T08:58:19;22.10;;;15.60;;
29206;SDS011;16247;50.840;4.382;2023-06-22T09:00:46;27.65;;;16.67;;
29206;SDS011;16247;50.840;4.382;2023-06-22T09:03:12;22.00;;;15.73;;
29206;SDS011;16247;50.840;4.382;2023-06-22T09:05:38;18.95;;;15.90;;
29206;SDS011;16247;50.840;4.382;2023-06-22T09:08:04;18.10;;;15.93;;
29206;SDS011;16247;50.840;4.382;2023-06-22T09:10:30;21.35;;;15.48;;
29206;SDS011;16247;50.840;4.382;2023-06-22T09:12:56;17.02;;;14.07;;
29206;SDS011;16247;50.840;4.382;2023-06-22T09:15:22;18.75;;;15.23;;
29206;SDS011;16247;50.840;4.382;2023-06-22T09:17:48;17.08;;;14.32;;
29206;SDS011;16247;50.840;4.382;2023-06-22T09:20:14;17.92;;;14.27;;
29206;SDS011;16247;50.840;4.382;2023-06-22T09:22:40;15.32;;;13.35;;
29206;SDS011;16247;50.840;4.382;2023-06-22T09:25:07;17.20;;;14.30;;
29206;SDS011;16247;50.840;4.382;2023-06-22T09:27:32;14.65;;;13.13;;
29206;SDS011;16247;50.840;4.382;2023-06-22T09:29:58;15.18;;;13.52;;
29206;SDS011;16247;50.840;4.382;2023-06-22T09:32:24;19.75;;;15.02;;
29206;SDS011;16247;50.840;4.382;2023-06-22T09:34:51;16.67;;;14.23;;
29206;SDS011;16247;50.840;4.382;2023-06-22T09:37:17;18.05;;;14.55;;
29206;SDS011;16247;50.840;4.382;2023-06-22T09:39:43;25.40;;;16.02;;
29206;SDS011;16247;50.840;4.382;2023-06-22T09:42:08;23.95;;;16.83;;
29206;SDS011;16247;50.840;4.382;2023-06-22T09:44:34;26.38;;;17.63;;
29206;SDS011;16247;50.840;4.382;2023-06-22T09:47:00;26.80;;;17.35;;
29206;SDS011;16247;50.840;4.382;2023-06-22T09:49:25;23.15;;;17.33;;
29206;SDS011;16247;50.840;4.382;2023-06-22T09:51:51;26.50;;;18.30;;
29206;SDS011;16247;50.840;4.382;2023-06-22T09:54:17;27.20;;;19.67;;
29206;SDS011;16247;50.840;4.382;2023-06-22T09:56:43;30.27;;;20.48;;
29206;SDS011;16247;50.840;4.382;2023-06-22T09:59:09;22.02;;;16.70;;
29206;SDS011;16247;50.840;4.382;2023-06-22T10:01:34;21.38;;;15.82;;
29206;SDS011;16247;50.840;4.382;2023-06-22T10:04:01;23.80;;;18.52;;
29206;SDS011;16247;50.840;4.382;2023-06-22T10:06:27;20.95;;;16.63;;
29206;SDS011;16247;50.840;4.382;2023-06-22T10:08:53;17.55;;;15.68;;
29206;SDS011;16247;50.840;4.382;2023-06-22T10:11:19;22.50;;;16.98;;
29206;SDS011;16247;50.840;4.382;2023-06-22T10:13:44;22.05;;;17.90;;
29206;SDS011;16247;50.840;4.382;2023-06-22T10:16:10;20.30;;;16.67;;
29206;SDS011;16247;50.840;4.382;2023-06-22T10:18:36;19.98;;;16.90;;
29206;SDS011;16247;50.840;4.382;2023-06-22T10:21:02;22.35;;;16.08;;
29206;SDS011;16247;50.840;4.382;2023-06-22T10:23:27;26.40;;;18.13;;
29206;SDS011;16247;50.840;4.382;2023-06-22T10:25:53;19.92;;;16.42;;
29206;SDS011;16247;50.840;4.382;2023-06-22T10:28:19;22.00;;;15.90;;
29206;SDS011;16247;50.840;4.382;2023-06-22T10:30:44;24.75;;;18.20;;
29206;SDS011;16247;50.840;4.382;2023-06-22T10:33:11;19.33;;;16.48;;
29206;SDS011;16247;50.840;4.382;2023-06-22T10:35:37;20.23;;;16.70;;
29206;SDS011;16247;50.840;4.382;2023-06-22T10:38:03;19.42;;;16.30;;
29206;SDS011;16247;50.840;4.382;2023-06-22T10:40:30;22.10;;;17.17;;
29206;SDS011;16247;50.840;4.382;2023-06-22T10:42:56;19.90;;;16.77;;
29206;SDS011;16247;50.840;4.382;2023-06-22T10:45:21;22.20;;;18.40;;
29206;SDS011;16247;50.840;4.382;2023-06-22T10:47:47;21.58;;;19.23;;
29206;SDS011;16247;50.840;4.382;2023-06-22T10:50:12;23.70;;;18.88;;
29206;SDS011;16247;50.840;4.382;2023-06-22T10:52:38;20.05;;;16.17;;
29206;SDS011;16247;50.840;4.382;2023-06-22T10:55:05;20.92;;;17.60;;
29206;SDS011;16247;50.840;4.382;2023-06-22T10:57:31;21.05;;;16.98;;
29206;SDS011;16247;50.840;4.382;2023-06-22T10:59:56;25.17;;;19.25;;
29206;SDS011;16247;50.840;4.382;2023-06-22T11:02:22;26.88;;;21.08;;
29206;SDS011;16247;50.840;4.382;2023-06-22T11:04:49;25.47;;;21.03;;
29206;SDS011;16247;50.840;4.382;2023-06-22T11:07:15;24.63;;;18.98;;
29206;SDS011;16247;50.840;4.382;2023-06-22T11:09:42;22.70;;;17.90;;
29206;SDS011;16247;50.840;4.382;2023-06-22T11:12:08;23.27;;;17.10;;
29206;SDS011;16247;50.840;4.382;2023-06-22T11:14:34;21.65;;;16.80;;
29206;SDS011;16247;50.840;4.382;2023-06-22T11:17:00;23.60;;;17.42;;
29206;SDS011;16247;50.840;4.382;2023-06-22T11:19:25;18.80;;;15.80;;
29206;SDS011;16247;50.840;4.382;2023-06-22T11:21:51;32.78;;;24.35;;
29206;SDS011;16247;50.840;4.382;2023-06-22T11:24:17;21.13;;;15.93;;
29206;SDS011;16247;50.840;4.382;2023-06-22T11:26:43;22.75;;;17.52;;
29206;SDS011;16247;50.840;4.382;2023-06-22T11:29:08;25.42;;;19.63;;
29206;SDS011;16247;50.840;4.382;2023-06-22T11:31:34;21.75;;;19.17;;
29206;SDS011;16247;50.840;4.382;2023-06-22T11:34:00;23.85;;;18.95;;
29206;SDS011;16247;50.840;4.382;2023-06-22T11:36:26;22.90;;;18.38;;
29206;SDS011;16247;50.840;4.382;2023-06-22T11:38:52;20.52;;;17.83;;
29206;SDS011;16247;50.840;4.382;2023-06-22T11:41:17;27.48;;;20.98;;
29206;SDS011;16247;50.840;4.382;2023-06-22T11:43:44;24.55;;;20.38;;
29206;SDS011;16247;50.840;4.382;2023-06-22T11:46:09;34.60;;;24.98;;
29206;SDS011;16247;50.840;4.382;2023-06-22T11:48:35;28.73;;;22.63;;
29206;SDS011;16247;50.840;4.382;2023-06-22T11:51:01;25.92;;;21.45;;
29206;SDS011;16247;50.840;4.382;2023-06-22T11:53:28;25.10;;;19.02;;
29206;SDS011;16247;50.840;4.382;2023-06-22T11:55:54;26.25;;;19.80;;
29206;SDS011;16247;50.840;4.382;2023-06-22T11:58:22;28.95;;;21.17;;
29206;SDS011;16247;50.840;4.382;2023-06-22T12:00:47;28.17;;;22.25;;
29206;SDS011;16247;50.840;4.382;2023-06-22T12:03:14;24.27;;;19.92;;
29206;SDS011;16247;50.840;4.382;2023-06-22T12:05:42;22.75;;;20.15;;
29206;SDS011;16247;50.840;4.382;2023-06-22T12:08:08;22.48;;;19.63;;
29206;SDS011;16247;50.840;4.382;2023-06-22T12:10:34;26.02;;;21.10;;
29206;SDS011;16247;50.840;4.382;2023-06-22T12:12:59;23.08;;;17.10;;
29206;SDS011;16247;50.840;4.382;2023-06-22T12:15:25;22.38;;;18.30;;
29206;SDS011;16247;50.840;4.382;2023-06-22T12:17:52;22.42;;;17.42;;
29206;SDS011;16247;50.840;4.382;2023-06-22T12:20:18;23.85;;;20.15;;
29206;SDS011;16247;50.840;4.382;2023-06-22T12:22:44;24.42;;;20.40;;
29206;SDS011;16247;50.840;4.382;2023-06-22T12:25:10;19.92;;;16.10;;
29206;SDS011;16247;50.840;4.382;2023-06-22T12:27:36;21.92;;;17.95;;
29206;SDS011;16247;50.840;4.382;2023-06-22T12:30:02;22.73;;;18.63;;
29206;SDS011;16247;50.840;4.382;2023-06-22T12:32:29;19.40;;;16.95;;
29206;SDS011;16247;50.840;4.382;2023-06-22T12:34:55;23.95;;;20.25;;
29206;SDS011;16247;50.840;4.382;2023-06-22T12:37:21;26.65;;;21.33;;
29206;SDS011;16247;50.840;4.382;2023-06-22T12:39:47;28.02;;;20.85;;
29206;SDS011;16247;50.840;4.382;2023-06-22T12:42:13;24.00;;;20.00;;
29206;SDS011;16247;50.840;4.382;2023-06-22T12:44:38;22.63;;;17.40;;
29206;SDS011;16247;50.840;4.382;2023-06-22T12:47:05;26.60;;;22.55;;
29206;SDS011;16247;50.840;4.382;2023-06-22T12:49:30;24.52;;;17.90;;
29206;SDS011;16247;50.840;4.382;2023-06-22T12:51:56;26.75;;;22.23;;
29206;SDS011;16247;50.840;4.382;2023-06-22T12:54:22;25.05;;;21.55;;
29206;SDS011;16247;50.840;4.382;2023-06-22T12:56:49;28.75;;;24.05;;
29206;SDS011;16247;50.840;4.382;2023-06-22T12:59:15;28.50;;;22.75;;
29206;SDS011;16247;50.840;4.382;2023-06-22T13:01:42;27.38;;;24.45;;
29206;SDS011;16247;50.840;4.382;2023-06-22T13:04:09;30.15;;;25.05;;
29206;SDS011;16247;50.840;4.382;2023-06-22T13:06:36;26.40;;;19.60;;
29206;SDS011;16247;50.840;4.382;2023-06-22T13:09:02;23.98;;;21.42;;
29206;SDS011;16247;50.840;4.382;2023-06-22T13:13:55;29.80;;;24.45;;
29206;SDS011;16247;50.840;4.382;2023-06-22T13:16:21;27.98;;;23.65;;
29206;SDS011;16247;50.840;4.382;2023-06-22T13:18:46;27.15;;;23.27;;
29206;SDS011;16247;50.840;4.382;2023-06-22T13:21:12;32.28;;;26.52;;
29206;SDS011;16247;50.840;4.382;2023-06-22T13:23:39;30.23;;;25.50;;
29206;SDS011;16247;50.840;4.382;2023-06-22T13:26:05;31.58;;;26.30;;
29206;SDS011;16247;50.840;4.382;2023-06-22T13:28:30;33.92;;;27.48;;
29206;SDS011;16247;50.840;4.382;2023-06-22T13:30:56;28.30;;;24.55;;
29206;SDS011;16247;50.840;4.382;2023-06-22T13:33:22;28.80;;;25.73;;
29206;SDS011;16247;50.840;4.382;2023-06-22T13:35:48;34.13;;;24.42;;
29206;SDS011;16247;50.840;4.382;2023-06-22T13:38:14;28.40;;;24.30;;
29206;SDS011;16247;50.840;4.382;2023-06-22T13:40:39;29.20;;;24.38;;
29206;SDS011;16247;50.840;4.382;2023-06-22T13:43:05;32.58;;;24.80;;
29206;SDS011;16247;50.840;4.382;2023-06-22T13:45:31;28.48;;;25.42;;
29206;SDS011;16247;50.840;4.382;2023-06-22T13:47:57;26.70;;;23.67;;
29206;SDS011;16247;50.840;4.382;2023-06-22T13:50:23;29.60;;;24.63;;
29206;SDS011;16247;50.840;4.382;2023-06-22T13:52:49;28.77;;;24.05;;
29206;SDS011;16247;50.840;4.382;2023-06-22T13:55:14;26.48;;;23.38;;
29206;SDS011;16247;50.840;4.382;2023-06-22T13:57:40;30.02;;;24.77;;
29206;SDS011;16247;50.840;4.382;2023-06-22T14:00:07;27.98;;;24.92;;
29206;SDS011;16247;50.840;4.382;2023-06-22T14:02:33;27.20;;;24.30;;
29206;SDS011;16247;50.840;4.382;2023-06-22T14:04:59;28.65;;;24.33;;
29206;SDS011;16247;50.840;4.382;2023-06-22T14:07:25;29.35;;;25.95;;
29206;SDS011;16247;50.840;4.382;2023-06-22T14:09:51;29.58;;;24.17;;
29206;SDS011;16247;50.840;4.382;2023-06-22T14:12:16;27.05;;;23.50;;
29206;SDS011;16247;50.840;4.382;2023-06-22T14:14:45;32.97;;;26.13;;
29206;SDS011;16247;50.840;4.382;2023-06-22T14:17:11;27.45;;;21.77;;
29206;SDS011;16247;50.840;4.382;2023-06-22T14:19:36;26.75;;;23.48;;
29206;SDS011;16247;50.840;4.382;2023-06-22T14:22:02;25.10;;;22.42;;
29206;SDS011;16247;50.840;4.382;2023-06-22T14:24:28;31.58;;;26.75;;
29206;SDS011;16247;50.840;4.382;2023-06-22T14:26:54;31.10;;;25.15;;
29206;SDS011;16247;50.840;4.382;2023-06-22T14:29:20;28.60;;;25.17;;
29206;SDS011;16247;50.840;4.382;2023-06-22T14:31:46;29.88;;;25.77;;
29206;SDS011;16247;50.840;4.382;2023-06-22T14:34:12;25.20;;;22.58;;
29206;SDS011;16247;50.840;4.382;2023-06-22T14:36:38;25.92;;;22.95;;
29206;SDS011;16247;50.840;4.382;2023-06-22T14:39:04;24.77;;;22.08;;
29206;SDS011;16247;50.840;4.382;2023-06-22T14:41:30;28.88;;;25.10;;
29206;SDS011;16247;50.840;4.382;2023-06-22T14:43:56;29.52;;;26.33;;
29206;SDS011;16247;50.840;4.382;2023-06-22T14:46:22;30.83;;;26.00;;
29206;SDS011;16247;50.840;4.382;2023-06-22T14:48:47;33.53;;;29.90;;
29206;SDS011;16247;50.840;4.382;2023-06-22T14:51:13;31.90;;;28.48;;
29206;SDS011;16247;50.840;4.382;2023-06-22T14:53:39;26.58;;;22.88;;
29206;SDS011;16247;50.840;4.382;2023-06-22T14:56:05;30.55;;;27.20;;
29206;SDS011;16247;50.840;4.382;2023-06-22T14:58:31;32.17;;;28.63;;
29206;SDS011;16247;50.840;4.382;2023-06-22T15:01:01;33.38;;;28.85;;
29206;SDS011;16247;50.840;4.382;2023-06-22T15:03:27;25.98;;;23.08;;
29206;SDS011;16247;50.840;4.382;2023-06-22T15:08:21;33.58;;;28.20;;
29206;SDS011;16247;50.840;4.382;2023-06-22T15:10:47;35.25;;;30.60;;
29206;SDS011;16247;50.840;4.382;2023-06-22T15:13:13;35.40;;;30.00;;
29206;SDS011;16247;50.840;4.382;2023-06-22T15:15:39;34.47;;;29.73;;
29206;SDS011;16247;50.840;4.382;2023-06-22T15:38:47;34.10;;;29.88;;
29206;SDS011;16247;50.840;4.382;2023-06-22T15:41:13;34.92;;;31.20;;
29206;SDS011;16247;50.840;4.382;2023-06-22T15:43:39;32.28;;;27.60;;
29206;SDS011;16247;50.840;4.382;2023-06-22T15:46:04;35.40;;;31.40;;
29206;SDS011;16247;50.840;4.382;2023-06-22T15:48:30;34.30;;;30.60;;
29206;SDS011;16247;50.840;4.382;2023-06-22T15:50:56;39.15;;;31.92;;
29206;SDS011;16247;50.840;4.382;2023-06-22T15:53:21;34.58;;;30.55;;
29206;SDS011;16247;50.840;4.382;2023-06-22T15:55:47;36.33;;;31.63;;
29206;SDS011;16247;50.840;4.382;2023-06-22T15:58:13;30.58;;;26.75;;
29206;SDS011;16247;50.840;4.382;2023-06-22T16:00:41;33.60;;;29.63;;
29206;SDS011;16247;50.840;4.382;2023-06-22T16:03:07;30.00;;;26.70;;
29206;SDS011;16247;50.840;4.382;2023-06-22T16:05:33;33.28;;;29.77;;
29206;SDS011;16247;50.840;4.382;2023-06-22T16:07:59;30.38;;;27.17;;
29206;SDS011;16247;50.840;4.382;2023-06-22T16:10:24;27.05;;;23.65;;
29206;SDS011;16247;50.840;4.382;2023-06-22T16:12:50;26.70;;;23.90;;
29206;SDS011;16247;50.840;4.382;2023-06-22T16:15:16;33.40;;;24.40;;
29206;SDS011;16247;50.840;4.382;2023-06-22T16:17:41;32.92;;;29.52;;
29206;SDS011;16247;50.840;4.382;2023-06-22T16:20:07;28.90;;;25.75;;
29206;SDS011;16247;50.840;4.382;2023-06-22T16:22:35;32.42;;;28.55;;
29206;SDS011;16247;50.840;4.382;2023-06-22T16:25:01;30.42;;;27.23;;
29206;SDS011;16247;50.840;4.382;2023-06-22T16:27:28;26.25;;;23.50;;
29206;SDS011;16247;50.840;4.382;2023-06-22T16:29:54;26.50;;;23.70;;
29206;SDS011;16247;50.840;4.382;2023-06-22T16:32:20;33.53;;;29.70;;
29206;SDS011;16247;50.840;4.382;2023-06-22T16:34:46;36.55;;;32.60;;
29206;SDS011;16247;50.840;4.382;2023-06-22T16:37:12;35.63;;;31.92;;
29206;SDS011;16247;50.840;4.382;2023-06-22T16:39:39;31.67;;;28.17;;
29206;SDS011;16247;50.840;4.382;2023-06-22T16:42:05;35.58;;;29.65;;
29206;SDS011;16247;50.840;4.382;2023-06-22T16:44:31;34.85;;;31.15;;
29206;SDS011;16247;50.840;4.382;2023-06-22T16:46:59;37.40;;;33.50;;
29206;SDS011;16247;50.840;4.382;2023-06-22T16:49:27;33.53;;;29.90;;
29206;SDS011;16247;50.840;4.382;2023-06-22T16:51:53;36.03;;;31.98;;
29206;SDS011;16247;50.840;4.382;2023-06-22T16:54:18;39.15;;;30.67;;
29206;SDS011;16247;50.840;4.382;2023-06-22T16:56:44;35.13;;;30.65;;
29206;SDS011;16247;50.840;4.382;2023-06-22T16:59:11;33.25;;;29.10;;
29206;SDS011;16247;50.840;4.382;2023-06-22T17:01:37;34.20;;;30.45;;
29206;SDS011;16247;50.840;4.382;2023-06-22T17:04:13;35.25;;;31.42;;
29206;SDS011;16247;50.840;4.382;2023-06-22T17:06:43;36.03;;;29.77;;
29206;SDS011;16247;50.840;4.382;2023-06-22T17:09:19;33.50;;;29.20;;
29206;SDS011;16247;50.840;4.382;2023-06-22T17:14:15;31.27;;;27.75;;
29206;SDS011;16247;50.840;4.382;2023-06-22T17:16:41;32.42;;;28.80;;
29206;SDS011;16247;50.840;4.382;2023-06-22T17:19:09;32.40;;;28.42;;
29206;SDS011;16247;50.840;4.382;2023-06-22T17:21:37;35.43;;;27.10;;
29206;SDS011;16247;50.840;4.382;2023-06-22T17:24:02;30.70;;;27.13;;
29206;SDS011;16247;50.840;4.382;2023-06-22T17:26:29;30.80;;;26.42;;
29206;SDS011;16247;50.840;4.382;2023-06-22T17:28:56;29.25;;;26.02;;
29206;SDS011;16247;50.840;4.382;2023-06-22T17:31:26;32.95;;;27.67;;
29206;SDS011;16247;50.840;4.382;2023-06-22T17:34:16;31.20;;;25.25;;
29206;SDS011;16247;50.840;4.382;2023-06-22T17:36:45;34.00;;;26.70;;
29206;SDS011;16247;50.840;4.382;2023-06-22T17:39:17;32.60;;;26.10;;
29206;SDS011;16247;50.840;4.382;2023-06-22T17:41:44;28.40;;;25.40;;
29206;SDS011;16247;50.840;4.382;2023-06-22T17:44:12;27.50;;;23.95;;
29206;SDS011;16247;50.840;4.382;2023-06-22T17:46:39;28.88;;;25.13;;
29206;SDS011;16247;50.840;4.382;2023-06-22T17:49:07;33.95;;;25.30;;
29206;SDS011;16247;50.840;4.382;2023-06-22T17:51:34;31.30;;;25.10;;
29206;SDS011;16247;50.840;4.382;2023-06-22T17:54:01;27.77;;;24.77;;
29206;SDS011;16247;50.840;4.382;2023-06-22T17:56:27;28.15;;;25.08;;
29206;SDS011;16247;50.840;4.382;2023-06-22T17:58:54;28.00;;;23.35;;
29206;SDS011;16247;50.840;4.382;2023-06-22T18:01:30;28.80;;;24.92;;
29206;SDS011;16247;50.840;4.382;2023-06-22T18:04:01;27.98;;;24.45;;
29206;SDS011;16247;50.840;4.382;2023-06-22T18:06:44;28.00;;;23.75;;
29206;SDS011;16247;50.840;4.382;2023-06-22T18:09:12;28.70;;;23.63;;
29206;SDS011;16247;50.840;4.382;2023-06-22T18:14:10;27.40;;;24.50;;
29206;SDS011;16247;50.840;4.382;2023-06-22T18:19:05;25.50;;;22.15;;
29206;SDS011;16247;50.840;4.382;2023-06-22T18:21:32;26.83;;;22.75;;
29206;SDS011;16247;50.840;4.382;2023-06-22T18:23:57;28.13;;;24.02;;
29206;SDS011;16247;50.840;4.382;2023-06-22T18:26:25;27.70;;;23.05;;
29206;SDS011;16247;50.840;4.382;2023-06-22T18:28:52;23.33;;;20.77;;
29206;SDS011;16247;50.840;4.382;2023-06-22T18:31:19;23.58;;;19.98;;
29206;SDS011;16247;50.840;4.382;2023-06-22T18:33:56;24.77;;;20.23;;
29206;SDS011;16247;50.840;4.382;2023-06-22T18:36:26;25.05;;;20.20;;
29206;SDS011;16247;50.840;4.382;2023-06-22T18:39:12;23.40;;;20.52;;
29206;SDS011;16247;50.840;4.382;2023-06-22T18:41:39;24.83;;;20.90;;
29206;SDS011;16247;50.840;4.382;2023-06-22T18:44:25;22.70;;;20.25;;
29206;SDS011;16247;50.840;4.382;2023-06-22T18:46:53;24.92;;;19.45;;
29206;SDS011;16247;50.840;4.382;2023-06-22T18:50:03;22.88;;;19.77;;
29206;SDS011;16247;50.840;4.382;2023-06-22T18:52:27;24.33;;;21.48;;
29206;SDS011;16247;50.840;4.382;2023-06-22T18:54:52;23.95;;;20.05;;
29206;SDS011;16247;50.840;4.382;2023-06-22T19:00:05;20.10;;;17.30;;
29206;SDS011;16247;50.840;4.382;2023-06-22T19:05:14;23.75;;;20.35;;
29206;SDS011;16247;50.840;4.382;2023-06-22T19:12:50;21.65;;;18.50;;
29206;SDS011;16247;50.840;4.382;2023-06-22T19:15:17;21.58;;;16.45;;
29206;SDS011;16247;50.840;4.382;2023-06-22T19:17:47;20.23;;;16.17;;
29206;SDS011;16247;50.840;4.382;2023-06-22T19:20:17;22.50;;;17.73;;